sensor_id;sensor_type;location;lat;lon;timestamp;temperature;humidity
11091;DHT22;5599;52.210;21.046;2023-07-02T00:01:27;20.90;82.10
11091;DHT22;5599;52.210;21.046;2023-07-02T00:03:56;20.90;3.50
11091;DHT22;5599;52.210;21.046;2023-07-02T00:06:25;20.90;13.80
11091;DHT22;5599;52.210;21.046;2023-07-02T00:08:55;20.90;99.90
11091;DHT22;5599;52.210;21.046;2023-07-02T00:11:25;20.90;99.90
11091;DHT22;5599;52.210;21.046;2023-07-02T00:13:54;20.80;99.90
11091;DHT22;5599;52.210;21.046;2023-07-02T00:16:23;20.80;99.90
11091;DHT22;5599;52.210;21.046;2023-07-02T00:18:52;20.80;99.90
11091;DHT22;5599;52.210;21.046;2023-07-02T00:21:22;20.70;99.90
11091;DHT22;5599;52.210;21.046;2023-07-02T00:23:55;20.70;99.90
11091;DHT22;5599;52.210;21.046;2023-07-02T00:26:27;20.70;99.90
11091;DHT22;5599;52.210;21.046;2023-07-02T00:28:56;20.70;99.90
11091;DHT22;5599;52.210;21.046;2023-07-02T00:31:26;20.70;99.90
11091;DHT22;5599;52.210;21.046;2023-07-02T00:33:55;20.70;99.90
11091;DHT22;5599;52.210;21.046;2023-07-02T00:36:24;20.70;99.90
11091;DHT22;5599;52.210;21.046;2023-07-02T00:38:54;20.70;99.90
11091;DHT22;5599;52.210;21.046;2023-07-02T00:41:23;20.60;99.90
11091;DHT22;5599;52.210;21.046;2023-07-02T00:43:54;20.60;99.90
11091;DHT22;5599;52.210;21.046;2023-07-02T00:46:23;20.60;99.90
11091;DHT22;5599;52.210;21.046;2023-07-02T00:48:55;20.50;1.00
11091;DHT22;5599;52.210;21.046;2023-07-02T00:51:26;20.50;1.00
11091;DHT22;5599;52.210;21.046;2023-07-02T00:53:56;20.50;1.00
11091;DHT22;5599;52.210;21.046;2023-07-02T00:56:26;20.40;1.00
11091;DHT22;5599;52.210;21.046;2023-07-02T00:58:57;20.30;1.00
11091;DHT22;5599;52.210;21.046;2023-07-02T01:01:28;20.30;1.00
11091;DHT22;5599;52.210;21.046;2023-07-02T01:04:00;20.30;1.00
11091;DHT22;5599;52.210;21.046;2023-07-02T01:06:31;20.20;1.00
11091;DHT22;5599;52.210;21.046;2023-07-02T01:09:02;20.20;1.00
11091;DHT22;5599;52.210;21.046;2023-07-02T01:11:34;20.10;1.00
11091;DHT22;5599;52.210;21.046;2023-07-02T01:14:08;20.10;1.00
11091;DHT22;5599;52.210;21.046;2023-07-02T01:16:38;20.10;1.00
11091;DHT22;5599;52.210;21.046;2023-07-02T01:19:13;20.20;1.00
11091;DHT22;5599;52.210;21.046;2023-07-02T01:21:48;20.20;1.00
11091;DHT22;5599;52.210;21.046;2023-07-02T01:24:18;20.10;1.00
11091;DHT22;5599;52.210;21.046;2023-07-02T01:26:50;20.10;1.00
11091;DHT22;5599;52.210;21.046;2023-07-02T01:29:20;20.00;1.00
11091;DHT22;5599;52.210;21.046;2023-07-02T01:31:49;20.00;1.00
11091;DHT22;5599;52.210;21.046;2023-07-02T01:34:19;19.90;1.00
11091;DHT22;5599;52.210;21.046;2023-07-02T01:36:50;19.90;99.90
11091;DHT22;5599;52.210;21.046;2023-07-02T01:39:19;19.80;99.90
11091;DHT22;5599;52.210;21.046;2023-07-02T01:41:51;19.80;99.90
11091;DHT22;5599;52.210;21.046;2023-07-02T01:44:21;19.80;99.90
11091;DHT22;5599;52.210;21.046;2023-07-02T01:46:50;19.80;81.40
11091;DHT22;5599;52.210;21.046;2023-07-02T01:49:20;19.80;99.90
11091;DHT22;5599;52.210;21.046;2023-07-02T01:51:51;19.80;99.90
11091;DHT22;5599;52.210;21.046;2023-07-02T01:54:22;19.90;71.90
11091;DHT22;5599;52.210;21.046;2023-07-02T01:56:51;19.80;99.90
11091;DHT22;5599;52.210;21.046;2023-07-02T01:59:20;19.80;99.90
11091;DHT22;5599;52.210;21.046;2023-07-02T02:01:50;19.80;99.90
11091;DHT22;5599;52.210;21.046;2023-07-02T02:04:19;19.80;99.90
11091;DHT22;5599;52.210;21.046;2023-07-02T02:06:49;19.80;99.90
11091;DHT22;5599;52.210;21.046;2023-07-02T02:09:19;19.80;99.90
11091;DHT22;5599;52.210;21.046;2023-07-02T02:11:50;19.70;99.90
11091;DHT22;5599;52.210;21.046;2023-07-02T02:14:20;19.70;99.90
11091;DHT22;5599;52.210;21.046;2023-07-02T02:16:50;19.70;99.90
11091;DHT22;5599;52.210;21.046;2023-07-02T02:19:19;19.70;99.90
11091;DHT22;5599;52.210;21.046;2023-07-02T02:21:50;19.80;99.90
11091;DHT22;5599;52.210;21.046;2023-07-02T02:24:19;19.80;99.90
11091;DHT22;5599;52.210;21.046;2023-07-02T02:26:48;19.80;99.90
11091;DHT22;5599;52.210;21.046;2023-07-02T02:29:17;19.80;98.30
11091;DHT22;5599;52.210;21.046;2023-07-02T02:31:46;19.80;99.90
11091;DHT22;5599;52.210;21.046;2023-07-02T02:34:15;19.80;94.90
11091;DHT22;5599;52.210;21.046;2023-07-02T02:36:45;19.90;64.30
11091;DHT22;5599;52.210;21.046;2023-07-02T02:39:16;19.80;51.50
11091;DHT22;5599;52.210;21.046;2023-07-02T02:41:45;19.90;1.00
11091;DHT22;5599;52.210;21.046;2023-07-02T02:44:18;19.90;1.00
11091;DHT22;5599;52.210;21.046;2023-07-02T02:46:48;19.90;1.00
11091;DHT22;5599;52.210;21.046;2023-07-02T02:49:17;19.90;1.00
11091;DHT22;5599;52.210;21.046;2023-07-02T02:51:47;19.90;1.00
11091;DHT22;5599;52.210;21.046;2023-07-02T02:54:17;19.90;1.00
11091;DHT22;5599;52.210;21.046;2023-07-02T02:56:46;19.90;1.00
11091;DHT22;5599;52.210;21.046;2023-07-02T02:59:15;19.90;1.00
11091;DHT22;5599;52.210;21.046;2023-07-02T03:01:45;20.00;1.00
11091;DHT22;5599;52.210;21.046;2023-07-02T03:04:14;20.00;1.00
11091;DHT22;5599;52.210;21.046;2023-07-02T03:06:43;19.90;1.00
11091;DHT22;5599;52.210;21.046;2023-07-02T03:09:13;20.00;1.00
11091;DHT22;5599;52.210;21.046;2023-07-02T03:11:44;20.00;1.00
11091;DHT22;5599;52.210;21.046;2023-07-02T03:14:13;20.10;99.90
11091;DHT22;5599;52.210;21.046;2023-07-02T03:16:43;20.10;99.90
11091;DHT22;5599;52.210;21.046;2023-07-02T03:19:13;20.10;99.90
11091;DHT22;5599;52.210;21.046;2023-07-02T03:21:44;20.20;34.30
11091;DHT22;5599;52.210;21.046;2023-07-02T03:24:13;20.20;1.00
11091;DHT22;5599;52.210;21.046;2023-07-02T03:26:44;20.20;1.00
11091;DHT22;5599;52.210;21.046;2023-07-02T03:29:13;20.20;1.00
11091;DHT22;5599;52.210;21.046;2023-07-02T03:31:42;20.30;1.00
11091;DHT22;5599;52.210;21.046;2023-07-02T03:34:11;20.30;99.90
11091;DHT22;5599;52.210;21.046;2023-07-02T03:36:41;20.40;99.90
11091;DHT22;5599;52.210;21.046;2023-07-02T03:39:11;20.30;99.90
11091;DHT22;5599;52.210;21.046;2023-07-02T03:41:40;20.30;1.00
11091;DHT22;5599;52.210;21.046;2023-07-02T03:44:11;20.30;99.90
11091;DHT22;5599;52.210;21.046;2023-07-02T03:46:40;20.40;99.10
11091;DHT22;5599;52.210;21.046;2023-07-02T03:49:09;20.40;32.10
11091;DHT22;5599;52.210;21.046;2023-07-02T03:51:38;20.40;1.00
11091;DHT22;5599;52.210;21.046;2023-07-02T03:54:07;20.50;99.90
11091;DHT22;5599;52.210;21.046;2023-07-02T03:56:37;20.50;99.90
11091;DHT22;5599;52.210;21.046;2023-07-02T03:59:06;20.40;99.90
11091;DHT22;5599;52.210;21.046;2023-07-02T04:01:36;20.50;99.90
11091;DHT22;5599;52.210;21.046;2023-07-02T04:04:05;20.50;99.90
11091;DHT22;5599;52.210;21.046;2023-07-02T04:06:34;20.50;99.90
11091;DHT22;5599;52.210;21.046;2023-07-02T04:09:04;20.60;99.90
11091;DHT22;5599;52.210;21.046;2023-07-02T04:11:33;20.60;1.00
11091;DHT22;5599;52.210;21.046;2023-07-02T04:14:02;20.70;1.00
11091;DHT22;5599;52.210;21.046;2023-07-02T04:16:31;20.70;99.90
11091;DHT22;5599;52.210;21.046;2023-07-02T04:19:02;20.70;99.90
11091;DHT22;5599;52.210;21.046;2023-07-02T04:21:31;20.80;99.90
11091;DHT22;5599;52.210;21.046;2023-07-02T04:24:00;20.80;44.20
11091;DHT22;5599;52.210;21.046;2023-07-02T04:26:30;20.90;99.90
11091;DHT22;5599;52.210;21.046;2023-07-02T04:29:19;20.90;1.00
11091;DHT22;5599;52.210;21.046;2023-07-02T04:31:48;20.90;99.90
11091;DHT22;5599;52.210;21.046;2023-07-02T04:34:19;20.90;1.00
11091;DHT22;5599;52.210;21.046;2023-07-02T04:36:49;21.00;99.90
11091;DHT22;5599;52.210;21.046;2023-07-02T04:39:20;21.00;99.90
11091;DHT22;5599;52.210;21.046;2023-07-02T04:41:49;21.10;1.00
11091;DHT22;5599;52.210;21.046;2023-07-02T04:44:20;21.20;9.20
11091;DHT22;5599;52.210;21.046;2023-07-02T04:46:57;21.20;1.00
11091;DHT22;5599;52.210;21.046;2023-07-02T04:49:28;21.20;1.00
11091;DHT22;5599;52.210;21.046;2023-07-02T04:51:57;21.20;99.90
11091;DHT22;5599;52.210;21.046;2023-07-02T04:54:26;21.20;17.10
11091;DHT22;5599;52.210;21.046;2023-07-02T04:56:55;21.20;79.50
11091;DHT22;5599;52.210;21.046;2023-07-02T04:59:26;21.20;99.90
11091;DHT22;5599;52.210;21.046;2023-07-02T05:01:55;21.20;99.90
11091;DHT22;5599;52.210;21.046;2023-07-02T05:04:24;21.30;99.90
11091;DHT22;5599;52.210;21.046;2023-07-02T05:06:55;21.30;99.90
11091;DHT22;5599;52.210;21.046;2023-07-02T05:09:24;21.30;1.00
11091;DHT22;5599;52.210;21.046;2023-07-02T05:11:53;21.40;99.90
11091;DHT22;5599;52.210;21.046;2023-07-02T05:14:22;21.40;1.00
11091;DHT22;5599;52.210;21.046;2023-07-02T05:16:51;21.50;1.00
11091;DHT22;5599;52.210;21.046;2023-07-02T05:19:20;21.50;1.00
11091;DHT22;5599;52.210;21.046;2023-07-02T05:21:49;21.50;99.90
11091;DHT22;5599;52.210;21.046;2023-07-02T05:24:20;21.50;99.90
11091;DHT22;5599;52.210;21.046;2023-07-02T05:26:49;21.50;1.00
11091;DHT22;5599;52.210;21.046;2023-07-02T05:29:19;21.50;99.90
11091;DHT22;5599;52.210;21.046;2023-07-02T05:31:48;21.60;1.00
11091;DHT22;5599;52.210;21.046;2023-07-02T05:34:17;21.70;1.00
11091;DHT22;5599;52.210;21.046;2023-07-02T05:36:46;21.80;99.90
11091;DHT22;5599;52.210;21.046;2023-07-02T05:39:15;21.80;4.20
11091;DHT22;5599;52.210;21.046;2023-07-02T05:41:46;21.80;1.00
11091;DHT22;5599;52.210;21.046;2023-07-02T05:44:15;21.80;1.00
11091;DHT22;5599;52.210;21.046;2023-07-02T05:46:44;21.90;1.00
11091;DHT22;5599;52.210;21.046;2023-07-02T05:49:14;22.00;99.90
11091;DHT22;5599;52.210;21.046;2023-07-02T05:51:43;22.00;99.90
11091;DHT22;5599;52.210;21.046;2023-07-02T05:54:12;22.10;99.90
11091;DHT22;5599;52.210;21.046;2023-07-02T05:56:41;22.20;99.90
11091;DHT22;5599;52.210;21.046;2023-07-02T05:59:12;22.20;66.70
11091;DHT22;5599;52.210;21.046;2023-07-02T06:01:45;22.40;63.60
11091;DHT22;5599;52.210;21.046;2023-07-02T06:04:14;22.30;1.00
11091;DHT22;5599;52.210;21.046;2023-07-02T06:06:44;22.50;1.00
11091;DHT22;5599;52.210;21.046;2023-07-02T06:09:13;22.40;1.00
11091;DHT22;5599;52.210;21.046;2023-07-02T06:11:42;22.40;1.00
11091;DHT22;5599;52.210;21.046;2023-07-02T06:14:12;22.50;1.00
11091;DHT22;5599;52.210;21.046;2023-07-02T06:16:41;22.50;1.00
11091;DHT22;5599;52.210;21.046;2023-07-02T06:19:11;22.50;1.00
11091;DHT22;5599;52.210;21.046;2023-07-02T06:21:40;22.50;1.00
11091;DHT22;5599;52.210;21.046;2023-07-02T06:24:09;22.60;1.00
11091;DHT22;5599;52.210;21.046;2023-07-02T06:26:38;22.70;1.00
11091;DHT22;5599;52.210;21.046;2023-07-02T06:29:07;22.70;1.00
11091;DHT22;5599;52.210;21.046;2023-07-02T06:31:38;22.70;1.00
11091;DHT22;5599;52.210;21.046;2023-07-02T06:34:07;22.80;1.00
11091;DHT22;5599;52.210;21.046;2023-07-02T06:36:37;22.80;1.00
11091;DHT22;5599;52.210;21.046;2023-07-02T06:39:06;22.70;1.00
11091;DHT22;5599;52.210;21.046;2023-07-02T06:41:36;22.60;1.00
11091;DHT22;5599;52.210;21.046;2023-07-02T06:44:05;22.60;1.00
11091;DHT22;5599;52.210;21.046;2023-07-02T06:46:34;22.60;1.00
11091;DHT22;5599;52.210;21.046;2023-07-02T06:49:05;22.90;1.00
11091;DHT22;5599;52.210;21.046;2023-07-02T06:51:34;23.10;1.00
11091;DHT22;5599;52.210;21.046;2023-07-02T06:54:04;23.20;1.00
11091;DHT22;5599;52.210;21.046;2023-07-02T06:56:33;23.30;1.00
11091;DHT22;5599;52.210;21.046;2023-07-02T06:59:02;23.30;1.00
11091;DHT22;5599;52.210;21.046;2023-07-02T07:01:31;23.20;1.00
11091;DHT22;5599;52.210;21.046;2023-07-02T07:04:01;23.30;1.00
11091;DHT22;5599;52.210;21.046;2023-07-02T07:06:31;23.30;1.00
11091;DHT22;5599;52.210;21.046;2023-07-02T07:09:01;23.50;1.00
11091;DHT22;5599;52.210;21.046;2023-07-02T07:11:31;23.80;1.00
11091;DHT22;5599;52.210;21.046;2023-07-02T07:14:00;23.90;1.00
11091;DHT22;5599;52.210;21.046;2023-07-02T07:16:29;24.10;1.00
11091;DHT22;5599;52.210;21.046;2023-07-02T07:18:58;24.20;1.00
11091;DHT22;5599;52.210;21.046;2023-07-02T07:21:27;24.30;1.00
11091;DHT22;5599;52.210;21.046;2023-07-02T07:23:58;24.20;99.90
11091;DHT22;5599;52.210;21.046;2023-07-02T07:26:27;24.20;1.00
11091;DHT22;5599;52.210;21.046;2023-07-02T07:28:56;24.10;1.00
11091;DHT22;5599;52.210;21.046;2023-07-02T07:31:25;23.90;1.00
11091;DHT22;5599;52.210;21.046;2023-07-02T07:33:54;23.90;1.00
11091;DHT22;5599;52.210;21.046;2023-07-02T07:36:24;23.90;1.00
11091;DHT22;5599;52.210;21.046;2023-07-02T07:38:53;23.90;1.00
11091;DHT22;5599;52.210;21.046;2023-07-02T07:41:27;24.00;1.00
11091;DHT22;5599;52.210;21.046;2023-07-02T07:43:56;24.10;4.80
11091;DHT22;5599;52.210;21.046;2023-07-02T07:46:25;24.20;41.30
11091;DHT22;5599;52.210;21.046;2023-07-02T07:48:55;24.20;1.00
11091;DHT22;5599;52.210;21.046;2023-07-02T07:51:24;24.10;1.00
11091;DHT22;5599;52.210;21.046;2023-07-02T07:53:57;24.00;2.90
11091;DHT22;5599;52.210;21.046;2023-07-02T07:56:27;23.80;83.50
11091;DHT22;5599;52.210;21.046;2023-07-02T07:58:57;23.70;99.90
11091;DHT22;5599;52.210;21.046;2023-07-02T08:01:26;23.50;99.90
11091;DHT22;5599;52.210;21.046;2023-07-02T08:03:56;23.30;1.00
11091;DHT22;5599;52.210;21.046;2023-07-02T08:06:25;23.40;1.00
11091;DHT22;5599;52.210;21.046;2023-07-02T08:08:54;23.30;1.00
11091;DHT22;5599;52.210;21.046;2023-07-02T08:11:24;23.20;99.90
11091;DHT22;5599;52.210;21.046;2023-07-02T08:13:54;23.10;99.90
11091;DHT22;5599;52.210;21.046;2023-07-02T08:16:23;23.00;1.00
11091;DHT22;5599;52.210;21.046;2023-07-02T08:18:53;23.00;1.00
11091;DHT22;5599;52.210;21.046;2023-07-02T08:21:22;23.10;1.00
11091;DHT22;5599;52.210;21.046;2023-07-02T08:23:51;23.10;1.00
11091;DHT22;5599;52.210;21.046;2023-07-02T08:26:20;23.10;1.00
11091;DHT22;5599;52.210;21.046;2023-07-02T08:28:50;23.20;1.00
11091;DHT22;5599;52.210;21.046;2023-07-02T08:31:20;23.40;99.90
11091;DHT22;5599;52.210;21.046;2023-07-02T08:33:51;23.50;99.90
11091;DHT22;5599;52.210;21.046;2023-07-02T08:36:20;23.50;99.90
11091;DHT22;5599;52.210;21.046;2023-07-02T08:38:49;23.70;99.90
11091;DHT22;5599;52.210;21.046;2023-07-02T08:41:20;23.70;1.00
11091;DHT22;5599;52.210;21.046;2023-07-02T08:43:54;23.90;1.00
11091;DHT22;5599;52.210;21.046;2023-07-02T08:46:25;23.90;1.00
11091;DHT22;5599;52.210;21.046;2023-07-02T08:48:55;23.90;1.00
11091;DHT22;5599;52.210;21.046;2023-07-02T08:51:24;23.70;1.00
11091;DHT22;5599;52.210;21.046;2023-07-02T08:53:54;23.50;18.00
11091;DHT22;5599;52.210;21.046;2023-07-02T08:56:24;23.50;99.90
11091;DHT22;5599;52.210;21.046;2023-07-02T08:58:54;23.30;99.90
11091;DHT22;5599;52.210;21.046;2023-07-02T09:01:25;23.30;1.00
11091;DHT22;5599;52.210;21.046;2023-07-02T09:03:59;23.50;99.90
11091;DHT22;5599;52.210;21.046;2023-07-02T09:06:29;23.70;99.90
11091;DHT22;5599;52.210;21.046;2023-07-02T09:09:04;23.70;1.00
11091;DHT22;5599;52.210;21.046;2023-07-02T09:11:34;23.60;74.80
11091;DHT22;5599;52.210;21.046;2023-07-02T09:14:04;23.50;99.90
11091;DHT22;5599;52.210;21.046;2023-07-02T09:16:34;23.50;99.90
11091;DHT22;5599;52.210;21.046;2023-07-02T09:19:06;23.40;99.90
11091;DHT22;5599;52.210;21.046;2023-07-02T09:21:42;23.30;1.00
11091;DHT22;5599;52.210;21.046;2023-07-02T09:24:14;23.40;1.00
11091;DHT22;5599;52.210;21.046;2023-07-02T09:26:44;23.40;1.00
11091;DHT22;5599;52.210;21.046;2023-07-02T09:29:14;23.40;1.00
11091;DHT22;5599;52.210;21.046;2023-07-02T09:31:47;23.30;1.00
11091;DHT22;5599;52.210;21.046;2023-07-02T09:34:38;23.20;1.00
11091;DHT22;5599;52.210;21.046;2023-07-02T09:37:08;23.30;99.90
11091;DHT22;5599;52.210;21.046;2023-07-02T09:39:38;23.50;1.00
11091;DHT22;5599;52.210;21.046;2023-07-02T09:42:08;23.60;1.00
11091;DHT22;5599;52.210;21.046;2023-07-02T09:44:38;23.60;99.90
11091;DHT22;5599;52.210;21.046;2023-07-02T09:47:13;23.40;99.90
11091;DHT22;5599;52.210;21.046;2023-07-02T09:49:46;23.30;1.00
11091;DHT22;5599;52.210;21.046;2023-07-02T09:52:18;23.30;1.00
11091;DHT22;5599;52.210;21.046;2023-07-02T09:54:47;23.30;1.00
11091;DHT22;5599;52.210;21.046;2023-07-02T09:57:16;23.40;99.90
11091;DHT22;5599;52.210;21.046;2023-07-02T09:59:46;23.50;99.90
11091;DHT22;5599;52.210;21.046;2023-07-02T10:02:17;23.80;91.30
11091;DHT22;5599;52.210;21.046;2023-07-02T10:04:47;24.10;1.00
11091;DHT22;5599;52.210;21.046;2023-07-02T10:07:29;24.40;99.90
11091;DHT22;5599;52.210;21.046;2023-07-02T10:09:59;24.40;1.00
11091;DHT22;5599;52.210;21.046;2023-07-02T10:12:30;24.50;1.00
11091;DHT22;5599;52.210;21.046;2023-07-02T10:14:59;24.80;1.00
11091;DHT22;5599;52.210;21.046;2023-07-02T10:17:31;25.10;1.00
11091;DHT22;5599;52.210;21.046;2023-07-02T10:20:03;25.40;1.00
11091;DHT22;5599;52.210;21.046;2023-07-02T10:22:42;25.60;1.00
11091;DHT22;5599;52.210;21.046;2023-07-02T10:25:12;25.70;99.90
11091;DHT22;5599;52.210;21.046;2023-07-02T10:27:42;25.60;99.90
11091;DHT22;5599;52.210;21.046;2023-07-02T10:30:11;25.50;99.90
11091;DHT22;5599;52.210;21.046;2023-07-02T10:32:42;25.50;99.90
11091;DHT22;5599;52.210;21.046;2023-07-02T10:35:14;25.60;99.90
11091;DHT22;5599;52.210;21.046;2023-07-02T10:37:45;25.70;99.90
11091;DHT22;5599;52.210;21.046;2023-07-02T10:40:14;25.80;99.90
11091;DHT22;5599;52.210;21.046;2023-07-02T10:42:48;25.90;99.90
11091;DHT22;5599;52.210;21.046;2023-07-02T10:45:19;26.10;99.90
11091;DHT22;5599;52.210;21.046;2023-07-02T10:47:50;26.20;99.90
11091;DHT22;5599;52.210;21.046;2023-07-02T10:50:20;26.50;99.90
11091;DHT22;5599;52.210;21.046;2023-07-02T10:52:51;26.50;99.90
11091;DHT22;5599;52.210;21.046;2023-07-02T10:55:21;26.40;99.90
11091;DHT22;5599;52.210;21.046;2023-07-02T10:58:02;26.30;99.90
11091;DHT22;5599;52.210;21.046;2023-07-02T11:00:31;26.20;99.90
11091;DHT22;5599;52.210;21.046;2023-07-02T11:03:03;26.10;99.90
11091;DHT22;5599;52.210;21.046;2023-07-02T11:05:33;25.90;99.90
11091;DHT22;5599;52.210;21.046;2023-07-02T11:08:08;25.80;99.90
11091;DHT22;5599;52.210;21.046;2023-07-02T11:10:38;25.70;99.90
11091;DHT22;5599;52.210;21.046;2023-07-02T11:13:11;25.50;99.90
11091;DHT22;5599;52.210;21.046;2023-07-02T11:15:41;25.30;99.90
11091;DHT22;5599;52.210;21.046;2023-07-02T11:18:12;25.30;99.90
11091;DHT22;5599;52.210;21.046;2023-07-02T11:20:44;25.10;99.90
11091;DHT22;5599;52.210;21.046;2023-07-02T11:23:17;25.00;1.00
11091;DHT22;5599;52.210;21.046;2023-07-02T11:25:57;24.80;1.00
11091;DHT22;5599;52.210;21.046;2023-07-02T11:28:30;24.60;1.00
11091;DHT22;5599;52.210;21.046;2023-07-02T11:31:01;24.40;97.70
11091;DHT22;5599;52.210;21.046;2023-07-02T11:33:37;24.20;99.90
11091;DHT22;5599;52.210;21.046;2023-07-02T11:36:08;24.20;1.00
11091;DHT22;5599;52.210;21.046;2023-07-02T11:38:49;24.40;1.00
11091;DHT22;5599;52.210;21.046;2023-07-02T11:41:19;24.60;99.90
11091;DHT22;5599;52.210;21.046;2023-07-02T11:43:49;24.90;30.10
11091;DHT22;5599;52.210;21.046;2023-07-02T11:46:18;25.30;1.00
11091;DHT22;5599;52.210;21.046;2023-07-02T11:48:49;25.40;1.00
11091;DHT22;5599;52.210;21.046;2023-07-02T11:51:18;25.60;1.00
11091;DHT22;5599;52.210;21.046;2023-07-02T11:53:48;25.70;1.00
11091;DHT22;5599;52.210;21.046;2023-07-02T11:56:17;25.60;1.00
11091;DHT22;5599;52.210;21.046;2023-07-02T11:58:46;25.40;1.00
11091;DHT22;5599;52.210;21.046;2023-07-02T12:01:15;25.40;1.00
11091;DHT22;5599;52.210;21.046;2023-07-02T12:03:45;25.50;1.00
11091;DHT22;5599;52.210;21.046;2023-07-02T12:06:15;25.70;1.00
11091;DHT22;5599;52.210;21.046;2023-07-02T12:08:45;25.90;1.00
11091;DHT22;5599;52.210;21.046;2023-07-02T12:11:14;26.20;99.90
11091;DHT22;5599;52.210;21.046;2023-07-02T12:13:44;26.40;99.90
11091;DHT22;5599;52.210;21.046;2023-07-02T12:16:13;26.50;99.90
11091;DHT22;5599;52.210;21.046;2023-07-02T12:18:42;26.40;99.90
11091;DHT22;5599;52.210;21.046;2023-07-02T12:21:12;26.40;99.90
11091;DHT22;5599;52.210;21.046;2023-07-02T12:23:42;26.30;99.90
11091;DHT22;5599;52.210;21.046;2023-07-02T12:26:12;26.40;99.90
11091;DHT22;5599;52.210;21.046;2023-07-02T12:28:41;26.60;99.90
11091;DHT22;5599;52.210;21.046;2023-07-02T12:31:11;26.70;99.90
11091;DHT22;5599;52.210;21.046;2023-07-02T12:33:40;26.90;99.90
11091;DHT22;5599;52.210;21.046;2023-07-02T12:36:09;27.00;99.90
11091;DHT22;5599;52.210;21.046;2023-07-02T12:38:39;26.90;99.90
11091;DHT22;5599;52.210;21.046;2023-07-02T12:41:10;26.90;99.90
11091;DHT22;5599;52.210;21.046;2023-07-02T12:43:39;27.00;99.90
11091;DHT22;5599;52.210;21.046;2023-07-02T12:46:08;26.90;99.90
11091;DHT22;5599;52.210;21.046;2023-07-02T12:48:37;26.90;99.90
11091;DHT22;5599;52.210;21.046;2023-07-02T12:51:07;26.70;1.00
11091;DHT22;5599;52.210;21.046;2023-07-02T12:53:36;26.90;1.00
11091;DHT22;5599;52.210;21.046;2023-07-02T12:56:05;27.00;1.00
11091;DHT22;5599;52.210;21.046;2023-07-02T12:58:36;27.00;1.00
11091;DHT22;5599;52.210;21.046;2023-07-02T13:01:06;27.00;1.00
11091;DHT22;5599;52.210;21.046;2023-07-02T13:03:36;27.20;1.00
11091;DHT22;5599;52.210;21.046;2023-07-02T13:06:06;27.20;1.00
11091;DHT22;5599;52.210;21.046;2023-07-02T13:08:36;27.30;1.00
11091;DHT22;5599;52.210;21.046;2023-07-02T13:11:07;27.30;1.00
11091;DHT22;5599;52.210;21.046;2023-07-02T13:13:39;27.20;1.00
11091;DHT22;5599;52.210;21.046;2023-07-02T13:16:09;27.20;1.00
11091;DHT22;5599;52.210;21.046;2023-07-02T13:18:38;27.20;1.00
11091;DHT22;5599;52.210;21.046;2023-07-02T13:21:08;27.30;1.00
11091;DHT22;5599;52.210;21.046;2023-07-02T13:23:38;27.20;1.00
11091;DHT22;5599;52.210;21.046;2023-07-02T13:26:08;27.00;1.00
11091;DHT22;5599;52.210;21.046;2023-07-02T13:28:40;27.00;1.00
11091;DHT22;5599;52.210;21.046;2023-07-02T13:31:11;27.10;1.00
11091;DHT22;5599;52.210;21.046;2023-07-02T13:33:41;27.10;1.00
11091;DHT22;5599;52.210;21.046;2023-07-02T13:36:13;27.30;1.00
11091;DHT22;5599;52.210;21.046;2023-07-02T13:38:43;27.20;1.00
11091;DHT22;5599;52.210;21.046;2023-07-02T13:41:14;27.10;1.00
11091;DHT22;5599;52.210;21.046;2023-07-02T13:43:46;27.30;1.00
11091;DHT22;5599;52.210;21.046;2023-07-02T13:46:16;27.40;1.00
11091;DHT22;5599;52.210;21.046;2023-07-02T13:48:46;27.40;1.00
11091;DHT22;5599;52.210;21.046;2023-07-02T13:51:16;27.50;1.00
11091;DHT22;5599;52.210;21.046;2023-07-02T13:53:46;27.40;1.00
11091;DHT22;5599;52.210;21.046;2023-07-02T13:56:16;27.10;1.00
11091;DHT22;5599;52.210;21.046;2023-07-02T13:59:06;26.80;1.00
11091;DHT22;5599;52.210;21.046;2023-07-02T14:01:36;26.80;1.00
11091;DHT22;5599;52.210;21.046;2023-07-02T14:04:07;26.70;1.00
11091;DHT22;5599;52.210;21.046;2023-07-02T14:06:36;26.70;1.00
11091;DHT22;5599;52.210;21.046;2023-07-02T14:09:07;26.60;1.00
11091;DHT22;5599;52.210;21.046;2023-07-02T14:11:40;26.60;1.00
11091;DHT22;5599;52.210;21.046;2023-07-02T14:14:13;26.50;1.00
11091;DHT22;5599;52.210;21.046;2023-07-02T14:16:43;26.80;1.00
11091;DHT22;5599;52.210;21.046;2023-07-02T14:19:13;26.90;1.00
11091;DHT22;5599;52.210;21.046;2023-07-02T14:21:45;26.90;1.00
11091;DHT22;5599;52.210;21.046;2023-07-02T14:24:16;26.90;1.00
11091;DHT22;5599;52.210;21.046;2023-07-02T14:26:46;26.90;1.00
11091;DHT22;5599;52.210;21.046;2023-07-02T14:29:18;26.90;1.00
11091;DHT22;5599;52.210;21.046;2023-07-02T14:31:48;26.90;1.00
11091;DHT22;5599;52.210;21.046;2023-07-02T14:34:18;26.80;1.00
11091;DHT22;5599;52.210;21.046;2023-07-02T14:36:49;26.80;1.00
11091;DHT22;5599;52.210;21.046;2023-07-02T14:39:19;26.90;1.00
11091;DHT22;5599;52.210;21.046;2023-07-02T14:41:49;26.80;1.00
11091;DHT22;5599;52.210;21.046;2023-07-02T14:44:21;26.60;1.00
11091;DHT22;5599;52.210;21.046;2023-07-02T14:46:51;26.60;1.00
11091;DHT22;5599;52.210;21.046;2023-07-02T14:49:20;26.60;1.00
11091;DHT22;5599;52.210;21.046;2023-07-02T14:51:50;26.60;1.00
11091;DHT22;5599;52.210;21.046;2023-07-02T14:54:19;26.70;1.00
11091;DHT22;5599;52.210;21.046;2023-07-02T14:56:48;26.60;1.00
11091;DHT22;5599;52.210;21.046;2023-07-02T14:59:19;26.70;1.00
11091;DHT22;5599;52.210;21.046;2023-07-02T15:01:48;26.70;1.00
11091;DHT22;5599;52.210;21.046;2023-07-02T15:04:18;26.70;1.00
11091;DHT22;5599;52.210;21.046;2023-07-02T15:06:47;26.70;1.00
11091;DHT22;5599;52.210;21.046;2023-07-02T15:09:16;26.70;1.00
11091;DHT22;5599;52.210;21.046;2023-07-02T15:11:46;26.70;1.00
11091;DHT22;5599;52.210;21.046;2023-07-02T15:14:15;26.80;1.00
11091;DHT22;5599;52.210;21.046;2023-07-02T15:16:46;26.60;1.00
11091;DHT22;5599;52.210;21.046;2023-07-02T15:19:15;26.70;1.00
11091;DHT22;5599;52.210;21.046;2023-07-02T15:21:44;26.70;1.00
11091;DHT22;5599;52.210;21.046;2023-07-02T15:24:14;26.70;1.00
11091;DHT22;5599;52.210;21.046;2023-07-02T15:26:43;26.60;1.00
11091;DHT22;5599;52.210;21.046;2023-07-02T15:29:12;26.40;1.00
11091;DHT22;5599;52.210;21.046;2023-07-02T15:31:41;26.50;1.00
11091;DHT22;5599;52.210;21.046;2023-07-02T15:34:14;26.50;1.00
11091;DHT22;5599;52.210;21.046;2023-07-02T15:36:46;26.30;1.00
11091;DHT22;5599;52.210;21.046;2023-07-02T15:39:16;26.20;1.00
11091;DHT22;5599;52.210;21.046;2023-07-02T15:41:50;26.30;1.00
11091;DHT22;5599;52.210;21.046;2023-07-02T15:44:19;26.20;1.00
11091;DHT22;5599;52.210;21.046;2023-07-02T15:46:49;26.30;1.00
11091;DHT22;5599;52.210;21.046;2023-07-02T15:49:19;26.30;1.00
11091;DHT22;5599;52.210;21.046;2023-07-02T15:51:49;26.20;1.00
11091;DHT22;5599;52.210;21.046;2023-07-02T15:54:18;26.10;1.00
11091;DHT22;5599;52.210;21.046;2023-07-02T15:56:48;26.10;1.00
11091;DHT22;5599;52.210;21.046;2023-07-02T15:59:17;26.10;1.00